Ευχαριστούμε που συμβάλλετε στη διατήρηση της σελίδας μας.

Thank you for your donations, it really helps to maintain the page.


Meteo Stats And More









Fire Weather Index (FWI)

Kastelokampos Rion more information Kastelokampos Rion


Romanos Cam more information Romanos Cam


Thunder radar more information blitzortung!


Rain radar more information rain snow radar


Visit our other weather sites:

Meteopatras.Eu in
Euweather NetworkMeteopatras.Eu in Euweather Network

Weather CloudWeather Cloud

PWS WeatherPWS Weather

Awekas NetWeather data from station Patra-Ketx

WunderGroundWeather data from station Patra-Ketx




Provided and Supervised by : Moulas Andreas

 Patra, Greece - Latitude : 38°14'21" N - Longitude : 21°45'5" E - Altitude : 56m

Nearby METAR Reports

Warning: A non-numeric value encountered in /storage/content/70/1007070/meteopatras.eu/public_html/weather/metar/metarDisplay.php on line 166 Warning: A non-numeric value encountered in /storage/content/70/1007070/meteopatras.eu/public_html/weather/metar/metarDisplay.php on line 166 Warning: A non-numeric value encountered in /storage/content/70/1007070/meteopatras.eu/public_html/weather/metar/metarDisplay.php on line 166 Warning: A non-numeric value encountered in /storage/content/70/1007070/meteopatras.eu/public_html/weather/metar/metarDisplay.php on line 166 Warning: A non-numeric value encountered in /storage/content/70/1007070/meteopatras.eu/public_html/weather/metar/metarDisplay.php on line 166 Warning: A non-numeric value encountered in /storage/content/70/1007070/meteopatras.eu/public_html/weather/metar/metarDisplay.php on line 166 Warning: A non-numeric value encountered in /storage/content/70/1007070/meteopatras.eu/public_html/weather/metar/metarDisplay.php on line 166 Warning: A non-numeric value encountered in /storage/content/70/1007070/meteopatras.eu/public_html/weather/metar/metarDisplay.php on line 166 Warning: A non-numeric value encountered in /storage/content/70/1007070/meteopatras.eu/public_html/weather/metar/metarDisplay.php on line 166 Warning: A non-numeric value encountered in /storage/content/70/1007070/meteopatras.eu/public_html/weather/metar/metarDisplay.php on line 166
   
LGRX - Araxos
Updated: 08-05-2021 13:50
Clear  
Clear  
   Wind: West 14.8 km/h
Wind: West 14.8 km/h
Temperature: 26°C
Dew Point: 15°C
Humidity: 51%
Barometer: 1011 hPa
Visibility: More than 10 km
Cloud details: Clear
LGRX 081050Z 27008KT CAVOK 26/15 Q1011
LGAD - Andravida
Updated: 08-05-2021 13:50
Clear  
Clear  
   Wind: NW 18.5 km/h
Wind: NW 18.5 km/h
Temperature: 25°C
Dew Point: 13°C
Humidity: 47%
Barometer: 1011 hPa
Visibility: More than 10 km
Cloud details: Clear
LGAD 081050Z 32010KT CAVOK 25/13 Q1011
LGZA - Zakinthos
Updated: 08-05-2021 13:50
Clear  
Clear  
   Wind: NNE 14.8 km/h
Wind: NNE 14.8 km/h
Temperature: 26°C
Dew Point: 13°C
Humidity: 45%
Barometer: 1011 hPa
Visibility: More than 10 km
Cloud details: Clear
LGZA 081050Z 02008KT CAVOK 26/13 Q1011
LGKF - Kefallinia
Updated: 08-05-2021 13:50
Clear  
Clear  
   Wind: NNW 31.5 km/h
Wind: NNW 31.5 km/h
Temperature: 25°C
Dew Point: 15°C
Humidity: 54%
Barometer: 1012 hPa
Visibility: More than 10 km
Cloud details: Clear
LGKF 081050Z 33017KT CAVOK 25/15 Q1012
LGPZ - Preveza
Updated: 08-05-2021 13:50
Few Clouds  
Few Clouds  
   Wind: WSW 16.7 km/h
Wind: WSW 16.7 km/h
Temperature: 22°C
Dew Point: 17°C
Humidity: 73%
Barometer: 1012 hPa
Clouds: Few Clouds
Visibility: More than 10 km
Cloud details: Few Clouds 8000 ft
LGPZ 081050Z 24009KT 9999 FEW080 22/17 Q1012
LGKL - Kalamata
Updated: 08-05-2021 13:50
Clear  
Clear  
   Wind: South 13 km/h
Wind: South 13 km/h
Temperature: 25°C
Dew Point: 14°C
Humidity: 51%
Barometer: 1009 hPa
Visibility: More than 10 km
Cloud details: Clear
LGKL 081050Z 17007KT CAVOK 25/14 Q1009
LGKR - Kerkyra
Updated: 08-05-2021 13:50
Clear  
Clear  
   Wind: SSE 11.1 km/h
Wind: SSE 11.1 km/h
Temperature: 27°C
Heat Index: 28°C
Dew Point: 17°C
Humidity: 54%
Barometer: 1012 hPa
Visibility: More than 10 km
Cloud details: Clear
LGKR 081050Z 15006KT CAVOK 27/17 Q1012 NOSIG
LGIO - Iwannina
Updated: 08-05-2021 13:50
Clear  
Clear  
   Wind: varies 7.4 km/h
Wind: varies 7.4 km/h
Temperature: 27°C
Dew Point: 9°C
Humidity: 32%
Barometer: 1012 hPa
Visibility: More than 10 km
Cloud details: Clear
LGIO 081050Z VRB04KT CAVOK 27/09 Q1012
LGPZ - Leykada
Updated: 08-05-2021 13:50
Few Clouds  
Few Clouds  
   Wind: WSW 16.7 km/h
Wind: WSW 16.7 km/h
Temperature: 22°C
Dew Point: 17°C
Humidity: 73%
Barometer: 1012 hPa
Clouds: Few Clouds
Visibility: More than 10 km
Cloud details: Few Clouds 8000 ft
LGPZ 081050Z 24009KT 9999 FEW080 22/17 Q1012
LGEL - Elefsina
Updated: 08-05-2021 13:50
Clear  
Clear  
   Wind: SE 7.4 km/h
Wind: SE 7.4 km/h
Temperature: 30°C
Dew Point: 9°C
Humidity: 27%
Barometer: 1009 hPa
Visibility: More than 10 km
Cloud details: Clear
LGEL 081050Z 14004KT CAVOK 30/09 Q1009
LGKC - Kythira
Updated: 07-05-2021 18:50
NOT Current
Clear  
Clear  
   Wind: SE 16.7 km/h
Wind: SE 16.7 km/h
Temperature: 22°C
Dew Point: 16°C
Humidity: 69%
Barometer: 1013 hPa
Visibility: More than 10 km
Cloud details: Clear
LGKC 071550Z 14009KT CAVOK 22/16 Q1013
LGIR - Hraklio
Updated: 08-05-2021 13:50
Clear  
Clear  
   Wind: WNW 22.2 km/h
Wind: WNW 22.2 km/h
Temperature: 25°C
Dew Point: 18°C
Humidity: 65%
Barometer: 1008 hPa
Visibility: More than 10 km
Cloud details: Clear
LGIR 081050Z 29012KT CAVOK 25/18 Q1008 NOSIG

Script developed by  Saratoga-weather.org Adapted for the template by  Weerstation Leuven

You find our weather info also at:

European Weather Network

WeatherCloud

Weather Underground

Hellas Meteo Network

AWEKAS

HAMweather, WeatherForYou, PWS Weather

MeteoPatras.Eu